Time;durP1;ratioP1;P1;durP2;ratioP2;P2;SDS_P1;SDS_P2;PMS_P1;PMS_P2;Temp;Humidity;BMP_temperature;BMP_pressure;BME280_temperature;BME280_humidity;BME280_pressure;Samples;Min_cycle;Max_cycle;Signal;HPM_P1;HPM_P2
2023/12/29 00:01:56;;;;;;;5.28;1.80;;;;;;;11.33;67.18;100808.06;6135870;23;20032;-67
2023/12/29 00:04:24;;;;;;;5.88;1.60;;;;;;;11.33;67.19;100808.06;6135979;23;20090;-67
2023/12/29 00:06:52;;;;;;;11.20;2.08;;;;;;;11.32;66.86;100809.13;6136040;23;20026;-67
2023/12/29 00:09:29;;;;;;;9.00;1.95;;;;;;;11.32;66.62;100797.53;6137586;23;20053;-68
2023/12/29 00:11:57;;;;;;;8.52;1.50;;;;;;;11.34;66.95;100814.28;6136932;23;20026;-67
2023/12/29 00:14:26;;;;;;;6.28;2.03;;;;;;;11.34;67.34;100809.72;6137008;23;20073;-68
2023/12/29 00:16:57;;;;;;;10.68;1.85;;;;;;;11.34;66.63;100803.50;6136475;23;20109;-68
2023/12/29 00:19:25;;;;;;;8.77;1.70;;;;;;;11.34;67.28;100804.34;6137312;23;20018;-68
2023/12/29 00:21:53;;;;;;;5.28;1.92;;;;;;;11.34;66.90;100800.81;6134316;23;20353;-67
2023/12/29 00:24:21;;;;;;;6.10;1.98;;;;;;;11.33;66.95;100805.38;6135967;23;20041;-68
2023/12/29 00:26:48;;;;;;;10.40;2.10;;;;;;;11.33;66.86;100808.06;6134833;23;20026;-68
2023/12/29 00:29:16;;;;;;;9.35;2.10;;;;;;;11.32;66.48;100792.97;6134965;23;20033;-68
2023/12/29 00:31:44;;;;;;;11.00;1.95;;;;;;;11.31;66.99;100772.50;6135525;23;20030;-67
2023/12/29 00:34:13;;;;;;;5.13;1.23;;;;;;;11.35;67.24;100776.38;6136103;23;20021;-67
2023/12/29 00:36:41;;;;;;;7.22;2.75;;;;;;;11.33;66.58;100748.88;6134364;23;20491;-68
2023/12/29 00:39:09;;;;;;;7.82;2.25;;;;;;;11.33;66.50;100773.09;6136445;23;20049;-68
2023/12/29 00:41:37;;;;;;;10.63;1.90;;;;;;;11.31;66.94;100764.44;6136609;23;20049;-68
2023/12/29 00:44:05;;;;;;;5.95;1.90;;;;;;;11.20;66.92;100753.63;6136547;23;20037;-68
2023/12/29 00:46:33;;;;;;;7.38;1.80;;;;;;;11.32;66.87;100762.56;6135707;23;20037;-67
2023/12/29 00:49:00;;;;;;;7.35;1.88;;;;;;;11.31;67.09;100759.06;6137044;23;20030;-67
2023/12/29 00:51:30;;;;;;;6.65;1.80;;;;;;;11.33;67.00;100761.50;6134985;23;20025;-67
2023/12/29 00:53:58;;;;;;;12.80;3.47;;;;;;;11.33;67.08;100765.03;6135283;23;20029;-67
2023/12/29 00:56:25;;;;;;;9.75;1.77;;;;;;;11.32;67.30;100773.31;6134504;23;20026;-67
2023/12/29 00:58:53;;;;;;;8.13;2.20;;;;;;;11.30;67.38;100778.09;6135148;23;20072;-67
2023/12/29 01:01:21;;;;;;;9.05;2.00;;;;;;;11.26;67.68;100769.69;6134583;23;20083;-67
2023/12/29 01:03:49;;;;;;;7.88;2.30;;;;;;;11.29;67.70;100769.22;6136942;23;20022;-67
2023/12/29 01:06:17;;;;;;;9.60;1.80;;;;;;;11.29;67.66;100771.91;6136326;23;20029;-67
2023/12/29 01:08:46;;;;;;;6.03;2.83;;;;;;;11.27;67.99;100768.63;6136317;23;20022;-67
2023/12/29 01:11:14;;;;;;;5.90;1.80;;;;;;;11.24;68.04;100777.16;6136936;23;20026;-67
2023/12/29 01:13:41;;;;;;;10.05;3.13;;;;;;;11.23;68.26;100772.00;6136775;23;20052;-67
2023/12/29 01:16:09;;;;;;;7.82;1.67;;;;;;;11.18;68.39;100764.63;6135670;23;20445;-67
2023/12/29 01:18:37;;;;;;;5.75;2.08;;;;;;;11.21;68.64;100766.84;6136556;23;20026;-67
2023/12/29 01:21:05;;;;;;;7.65;2.20;;;;;;;11.20;68.94;100770.59;6135140;23;20026;-67
2023/12/29 01:23:33;;;;;;;6.15;1.80;;;;;;;11.19;68.95;100778.88;6135838;23;20025;-67
2023/12/29 01:26:02;;;;;;;8.48;2.17;;;;;;;11.20;69.11;100769.75;6136132;23;20033;-67
2023/12/29 01:28:30;;;;;;;7.60;1.67;;;;;;;11.18;68.90;100775.38;6135506;23;20376;-67
2023/12/29 01:30:58;;;;;;;8.00;1.83;;;;;;;11.20;69.24;100772.44;6136666;23;20095;-67
2023/12/29 01:33:26;;;;;;;8.77;2.00;;;;;;;11.18;69.34;100772.69;6136463;23;20029;-67
2023/12/29 01:35:54;;;;;;;8.75;2.83;;;;;;;11.16;69.43;100774.78;6135867;23;20030;-68
2023/12/29 01:38:21;;;;;;;8.52;1.55;;;;;;;11.17;69.41;100775.59;6135928;23;20073;-68
2023/12/29 01:40:49;;;;;;;10.57;2.00;;;;;;;11.20;69.59;100775.16;6136569;23;20037;-68
2023/12/29 01:43:18;;;;;;;9.15;2.67;;;;;;;11.18;69.52;100769.16;6136280;23;20604;-68
2023/12/29 01:45:46;;;;;;;10.40;1.65;;;;;;;11.17;69.53;100768.34;6136516;23;20036;-68
2023/12/29 01:48:25;;;;;;;9.75;3.10;;;;;;;11.18;69.44;100748.47;6136468;23;20018;-68
2023/12/29 01:50:55;;;;;;;14.68;2.88;;;;;;;11.17;69.63;100752.22;6135034;23;20025;-68
2023/12/29 01:53:23;;;;;;;13.30;2.20;;;;;;;11.17;69.68;100752.22;6134552;23;20081;-68
2023/12/29 01:56:07;;;;;;;9.80;2.28;;;;;;;11.17;69.59;100746.84;6134679;23;20037;-67
2023/12/29 01:58:37;;;;;;;8.50;2.08;;;;;;;11.18;69.80;100740.41;6134390;23;20024;-67
2023/12/29 02:01:07;;;;;;;13.45;2.40;;;;;;;11.18;70.12;100740.41;6134752;23;20026;-68
2023/12/29 02:03:36;;;;;;;11.35;2.78;;;;;;;11.18;69.67;100742.28;6136576;23;20029;-67
2023/12/29 02:06:05;;;;;;;10.05;2.10;;;;;;;11.16;69.73;100744.38;6135800;23;20070;-67
2023/12/29 02:08:33;;;;;;;7.95;2.55;;;;;;;11.15;69.83;100740.03;6135643;23;20029;-68
2023/12/29 02:11:01;;;;;;;8.82;2.20;;;;;;;11.16;69.57;100744.38;6136316;23;20162;-67
2023/12/29 02:13:29;;;;;;;7.45;2.38;;;;;;;11.17;69.63;100738.75;6136378;23;20030;-68
2023/12/29 02:16:05;;;;;;;11.98;2.45;;;;;;;11.16;69.57;100742.50;6136019;23;20033;-67
2023/12/29 02:18:35;;;;;;;9.13;2.17;;;;;;;11.14;69.49;100739.22;6135768;23;20017;-68
2023/12/29 02:21:03;;;;;;;5.60;1.88;;;;;;;11.15;69.49;100753.50;6134376;23;20033;-68
2023/12/29 02:23:31;;;;;;;9.23;2.85;;;;;;;11.15;69.72;100758.88;6135212;23;20057;-67
2023/12/29 02:26:08;;;;;;;5.35;1.63;;;;;;;11.16;69.63;100755.13;6136286;23;20034;-68
2023/12/29 02:28:41;;;;;;;8.95;1.90;;;;;;;11.16;69.77;100749.75;6135965;23;20021;-68
2023/12/29 02:31:17;;;;;;;10.13;2.45;;;;;;;11.15;69.35;100748.09;6136335;23;20062;-68
2023/12/29 02:33:46;;;;;;;17.60;3.15;;;;;;;11.13;69.24;100752.91;6135719;23;20032;-68
2023/12/29 02:36:17;;;;;;;7.57;1.92;;;;;;;11.13;69.21;100747.50;6135812;23;20077;-68
2023/12/29 02:38:45;;;;;;;10.27;1.83;;;;;;;11.14;69.30;100749.16;6135765;23;20030;-68
2023/12/29 02:41:14;;;;;;;8.20;2.00;;;;;;;11.19;69.16;100747.44;6136594;23;20029;-68
2023/12/29 02:43:42;;;;;;;7.47;1.88;;;;;;;11.16;69.14;100747.06;6136130;23;20080;-68
2023/12/29 02:46:10;;;;;;;9.07;1.75;;;;;;;11.15;69.16;100753.50;6135914;23;20108;-68
2023/12/29 02:48:38;;;;;;;6.10;1.83;;;;;;;11.13;69.30;100755.59;6135686;23;20596;-68
2023/12/29 02:51:08;;;;;;;9.13;2.13;;;;;;;11.13;69.01;100750.19;6134360;23;20030;-67
2023/12/29 02:53:36;;;;;;;7.75;1.98;;;;;;;11.11;69.24;100747.75;6134041;23;20034;-68
2023/12/29 02:56:04;;;;;;;7.18;1.67;;;;;;;11.10;68.90;100751.47;6134334;23;20032;-68
2023/12/29 02:58:33;;;;;;;6.03;1.98;;;;;;;11.12;69.05;100748.56;6134497;23;20026;-69
2023/12/29 03:01:01;;;;;;;7.80;1.95;;;;;;;11.09;69.17;100745.28;6131341;23;20030;-67
2023/12/29 03:03:29;;;;;;;6.68;3.10;;;;;;;11.09;69.18;100749.84;6136111;23;20026;-69
2023/12/29 03:05:57;;;;;;;8.27;1.95;;;;;;;11.06;68.70;100745.75;6135208;23;20072;-68
2023/12/29 03:08:25;;;;;;;9.38;1.95;;;;;;;11.07;68.94;100743.88;6135722;23;20053;-68
2023/12/29 03:10:52;;;;;;;12.23;2.42;;;;;;;11.08;68.92;100745.50;6135461;23;20033;-68
2023/12/29 03:13:20;;;;;;;10.77;2.15;;;;;;;11.03;68.82;100723.84;6136414;23;20097;-68
2023/12/29 03:15:49;;;;;;;9.50;2.20;;;;;;;11.07;69.06;100728.56;6135695;23;20022;-68
2023/12/29 03:18:17;;;;;;;8.35;1.80;;;;;;;11.09;69.00;100736.41;6135695;23;20030;-69
2023/12/29 03:20:45;;;;;;;7.10;2.90;;;;;;;11.07;68.91;100723.16;6133563;23;20068;-68
2023/12/29 03:23:13;;;;;;;13.68;2.45;;;;;;;11.06;68.70;100731.47;6134903;23;20071;-68
2023/12/29 03:25:41;;;;;;;7.30;1.60;;;;;;;10.98;68.70;100715.66;6133936;23;20326;-68
2023/12/29 03:28:09;;;;;;;11.77;2.22;;;;;;;11.08;68.83;100729.38;6134325;23;20086;-67
2023/12/29 03:30:37;;;;;;;10.35;2.28;;;;;;;11.09;68.59;100739.91;6134509;23;20097;-67
2023/12/29 03:33:06;;;;;;;7.68;1.67;;;;;;;11.09;68.64;100750.66;6137717;23;20065;-67
2023/12/29 03:35:34;;;;;;;8.23;2.13;;;;;;;11.08;68.44;100740.13;6137208;23;20030;-67
2023/12/29 03:38:02;;;;;;;10.50;2.83;;;;;;;11.07;68.10;100746.56;6137775;23;20047;-67
2023/12/29 03:40:30;;;;;;;12.13;2.03;;;;;;;11.04;68.67;100742.44;6137035;23;20097;-67
2023/12/29 03:42:58;;;;;;;13.52;2.00;;;;;;;11.06;68.34;100742.22;6136608;23;20026;-67
2023/12/29 03:45:26;;;;;;;9.65;2.20;;;;;;;11.04;68.23;100741.63;6136377;23;20091;-67
2023/12/29 03:47:54;;;;;;;11.60;2.15;;;;;;;11.03;68.32;100737.31;6136994;23;20026;-68
2023/12/29 03:50:23;;;;;;;10.50;2.65;;;;;;;11.05;68.67;100745.97;6135547;23;20073;-68
2023/12/29 03:52:51;;;;;;;13.25;3.67;;;;;;;11.07;68.00;100741.19;6135069;23;20032;-68
2023/12/29 03:55:19;;;;;;;9.43;1.90;;;;;;;11.05;68.27;100733.34;6135478;23;20084;-67
2023/12/29 03:57:46;;;;;;;8.07;1.67;;;;;;;11.06;68.17;100740.34;6135845;23;20096;-68
2023/12/29 04:00:15;;;;;;;8.65;1.73;;;;;;;11.03;68.22;100724.69;6135698;23;20026;-67
2023/12/29 04:02:43;;;;;;;10.57;2.08;;;;;;;11.06;68.23;100715.34;6136398;23;20642;-67
2023/12/29 04:05:11;;;;;;;9.95;2.58;;;;;;;11.04;68.13;100734.38;6137063;23;20026;-67
2023/12/29 04:07:41;;;;;;;6.97;1.85;;;;;;;11.04;68.40;100731.69;6137081;23;20032;-67
2023/12/29 04:10:10;;;;;;;11.15;2.08;;;;;;;11.03;68.37;100734.63;6136264;23;20037;-67
2023/12/29 04:12:38;;;;;;;7.80;2.00;;;;;;;11.02;68.54;100736.47;6137396;23;20026;-67
2023/12/29 04:15:07;;;;;;;7.82;1.85;;;;;;;11.02;68.52;100730.28;6137051;23;20033;-68
2023/12/29 04:17:35;;;;;;;12.20;1.90;;;;;;;11.02;68.49;100727.59;6137237;23;20021;-68
2023/12/29 04:20:03;;;;;;;6.32;2.38;;;;;;;11.02;68.38;100720.34;6136374;23;20092;-67
2023/12/29 04:22:31;;;;;;;9.60;1.85;;;;;;;11.02;68.45;100733.78;6135451;23;20491;-68
2023/12/29 04:25:00;;;;;;;9.60;2.40;;;;;;;11.02;68.42;100741.84;6136466;23;20037;-67
2023/12/29 04:27:28;;;;;;;8.02;3.13;;;;;;;11.02;68.30;100741.84;6137498;23;20026;-67
2023/12/29 04:29:56;;;;;;;8.23;2.10;;;;;;;11.02;68.35;100725.72;6136980;23;20022;-67
2023/12/29 04:32:23;;;;;;;8.52;1.63;;;;;;;11.01;68.37;100731.31;6136698;23;20077;-68
2023/12/29 04:34:51;;;;;;;6.00;1.85;;;;;;;11.02;67.90;100724.91;6136498;23;20030;-68
2023/12/29 04:37:19;;;;;;;6.25;1.77;;;;;;;11.01;68.04;100720.56;6136294;23;20026;-67
2023/12/29 04:39:47;;;;;;;8.43;1.75;;;;;;;11.00;68.07;100735.88;6136522;23;20018;-68
2023/12/29 04:42:17;;;;;;;9.48;1.80;;;;;;;10.99;68.28;100731.56;6136509;23;20491;-67
2023/12/29 04:44:45;;;;;;;11.68;2.67;;;;;;;10.99;68.13;100736.13;6136824;23;20121;-67
2023/12/29 04:47:13;;;;;;;15.50;2.45;;;;;;;10.99;67.90;100726.19;6136067;23;20111;-68
2023/12/29 04:49:41;;;;;;;7.63;1.92;;;;;;;10.94;67.74;100717.16;6136363;23;20029;-68
2023/12/29 04:52:09;;;;;;;9.95;2.03;;;;;;;10.97;67.59;100730.97;6134964;23;20117;-68
2023/12/29 04:54:37;;;;;;;11.48;1.88;;;;;;;10.97;67.90;100725.59;6135145;23;20029;-67
2023/12/29 04:57:05;;;;;;;10.57;2.30;;;;;;;10.97;67.63;100730.97;6135057;23;20033;-68
2023/12/29 04:59:34;;;;;;;9.40;2.47;;;;;;;10.96;67.70;100723.13;6135471;23;20025;-68
2023/12/29 05:02:02;;;;;;;12.00;2.75;;;;;;;10.95;67.77;100735.75;6135426;23;20065;-67
2023/12/29 05:04:30;;;;;;;11.70;2.90;;;;;;;10.95;67.81;100727.69;6136906;23;20202;-68
2023/12/29 05:06:58;;;;;;;14.30;2.20;;;;;;;10.94;67.31;100734.09;6136459;23;20316;-69
2023/12/29 05:09:26;;;;;;;9.10;2.42;;;;;;;10.95;67.49;100738.44;6136337;23;20053;-67
2023/12/29 05:11:54;;;;;;;9.23;2.85;;;;;;;10.95;67.48;100726.88;6134718;23;20022;-69
2023/12/29 05:14:21;;;;;;;16.63;2.55;;;;;;;10.94;67.89;100726.03;6135105;23;20084;-68
2023/12/29 05:16:50;;;;;;;7.65;1.90;;;;;;;10.94;67.63;100722.53;6134161;23;20026;-67
2023/12/29 05:19:18;;;;;;;10.40;1.98;;;;;;;10.96;67.74;100721.25;6134948;23;20073;-68
2023/12/29 05:21:49;;;;;;;7.93;1.88;;;;;;;10.88;67.95;100724.25;6132568;23;20048;-67
2023/12/29 05:24:17;;;;;;;9.95;2.58;;;;;;;10.96;67.89;100729.31;6134009;23;20439;-68
2023/12/29 05:26:45;;;;;;;13.88;2.15;;;;;;;10.95;67.96;100751.88;6132381;23;20041;-68
2023/12/29 05:29:12;;;;;;;14.05;2.85;;;;;;;10.95;67.51;100732.25;6134156;23;20026;-67
2023/12/29 05:31:40;;;;;;;9.05;1.88;;;;;;;10.94;67.89;100720.66;6134459;23;20017;-68
2023/12/29 05:34:09;;;;;;;18.73;3.53;;;;;;;10.94;67.92;100731.41;6135355;23;20029;-68
2023/12/29 05:36:38;;;;;;;13.45;2.25;;;;;;;10.95;67.81;100732.25;6134140;23;20531;-68
2023/12/29 05:39:07;;;;;;;9.65;1.88;;;;;;;10.94;67.99;100723.34;6134683;23;20037;-67
2023/12/29 05:41:35;;;;;;;12.77;2.30;;;;;;;10.93;68.14;100716.34;6133079;23;20022;-68
2023/12/29 05:44:03;;;;;;;11.07;2.10;;;;;;;10.93;68.14;100727.09;6134772;23;20053;-68
2023/12/29 05:46:31;;;;;;;8.60;1.75;;;;;;;10.92;68.17;100724.63;6133612;23;20025;-69
2023/12/29 05:48:58;;;;;;;9.18;2.25;;;;;;;10.79;68.39;100701.41;6134627;23;20025;-68
2023/12/29 05:51:28;;;;;;;9.85;2.42;;;;;;;10.91;67.95;100718.44;6132817;23;20050;-67
2023/12/29 05:53:56;;;;;;;8.90;2.40;;;;;;;10.88;68.07;100712.69;6133409;23;20098;-68
2023/12/29 05:56:24;;;;;;;12.65;2.67;;;;;;;10.88;68.24;100724.25;6132421;23;20022;-68
2023/12/29 05:58:53;;;;;;;8.85;1.92;;;;;;;10.89;68.57;100714.31;6133629;23;20304;-67
2023/12/29 06:01:21;;;;;;;11.98;2.10;;;;;;;10.90;68.31;100710.59;6133209;23;20029;-67
2023/12/29 06:03:49;;;;;;;8.27;3.20;;;;;;;10.89;68.49;100715.16;6134624;23;20030;-68
2023/12/29 06:06:17;;;;;;;8.55;2.58;;;;;;;10.88;68.42;100702.75;6132988;23;20102;-68
2023/12/29 06:08:46;;;;;;;9.07;1.73;;;;;;;10.87;68.52;100700.28;6134286;23;20146;-67
2023/12/29 06:11:16;;;;;;;13.20;2.70;;;;;;;10.85;68.62;100694.31;6133958;23;20022;-67
2023/12/29 06:13:44;;;;;;;9.15;2.08;;;;;;;10.86;68.68;100695.97;6134630;23;20140;-68
2023/12/29 06:16:18;;;;;;;10.73;2.28;;;;;;;10.87;68.66;100706.50;6133751;23;20104;-67
2023/12/29 06:18:46;;;;;;;9.50;1.63;;;;;;;10.87;68.70;100705.66;6134528;23;20053;-68
2023/12/29 06:21:14;;;;;;;8.30;2.17;;;;;;;10.92;68.69;100705.81;6132882;23;20048;-70
2023/12/29 06:23:42;;;;;;;10.00;2.15;;;;;;;10.87;68.63;100687.66;6133368;23;20465;-71
2023/12/29 06:26:18;;;;;;;7.88;1.95;;;;;;;10.87;68.69;100690.34;6132065;23;20141;-71
2023/12/29 06:28:46;;;;;;;12.35;2.20;;;;;;;10.87;68.97;100693.03;6133678;23;20036;-71
2023/12/29 06:31:14;;;;;;;9.07;1.90;;;;;;;10.88;68.87;100701.94;6134038;23;20022;-69
2023/12/29 06:33:41;;;;;;;6.85;1.73;;;;;;;10.92;68.89;100706.63;6134296;23;20085;-69
2023/12/29 06:36:10;;;;;;;8.93;1.70;;;;;;;10.92;68.98;100719.25;6133706;23;20056;-68
2023/12/29 06:38:38;;;;;;;9.45;2.10;;;;;;;10.96;68.86;100717.75;6134197;23;20025;-71
2023/12/29 06:41:05;;;;;;;10.65;2.30;;;;;;;10.93;68.95;100713.66;6134420;23;20077;-67
2023/12/29 06:43:35;;;;;;;7.13;1.98;;;;;;;11.05;68.76;100713.69;6135764;23;20093;-69
2023/12/29 06:46:03;;;;;;;6.18;1.70;;;;;;;11.18;68.38;100732.34;6135873;23;20424;-68
2023/12/29 06:48:31;;;;;;;7.95;1.98;;;;;;;11.29;67.66;100704.66;6136404;23;20057;-67
2023/12/29 06:50:59;;;;;;;13.05;2.33;;;;;;;11.52;67.74;100711.97;6136252;23;20084;-66
2023/12/29 06:53:27;;;;;;;8.13;1.30;;;;;;;11.72;66.55;100701.69;6136384;23;20090;-66
2023/12/29 06:55:55;;;;;;;6.60;1.92;;;;;;;11.97;65.78;100696.09;6136061;23;20026;-66
2023/12/29 06:58:23;;;;;;;8.02;1.95;;;;;;;11.92;65.60;100692.47;6136146;23;20029;-67
2023/12/29 07:00:52;;;;;;;9.77;1.67;;;;;;;11.90;65.90;100708.06;6135017;23;20022;-67
2023/12/29 07:03:20;;;;;;;7.15;1.70;;;;;;;11.78;66.45;100693.75;6135176;23;20025;-69
2023/12/29 07:05:48;;;;;;;8.80;1.75;;;;;;;11.69;66.95;100696.75;6135615;23;20121;-72
2023/12/29 07:08:16;;;;;;;6.80;1.70;;;;;;;11.64;66.81;100682.38;6137708;23;20472;-70
2023/12/29 07:10:44;;;;;;;7.78;2.10;;;;;;;11.54;67.07;100688.31;6137082;23;20037;-70
2023/12/29 07:13:11;;;;;;;10.20;1.73;;;;;;;11.49;67.29;100695.44;6138098;23;20030;-71
2023/12/29 07:15:39;;;;;;;8.02;1.85;;;;;;;11.44;67.60;100690.75;6137107;23;20025;-69
2023/12/29 07:18:09;;;;;;;7.57;1.88;;;;;;;11.36;68.20;100691.09;6137658;23;20026;-69
2023/12/29 07:20:37;;;;;;;9.10;1.70;;;;;;;11.32;68.13;100679.16;6136583;23;20041;-71
2023/12/29 07:23:05;;;;;;;10.18;2.10;;;;;;;11.23;68.58;100689.44;6141381;23;20129;-74
2023/12/29 07:25:33;;;;;;;10.82;2.08;;;;;;;11.23;68.65;100702.06;6135280;23;20026;-71
2023/12/29 07:28:00;;;;;;;4.13;1.20;;;;;;;11.20;68.74;100716.78;6135517;23;20452;-67
2023/12/29 07:30:29;;;;;;;6.07;1.73;;;;;;;11.19;69.04;100707.06;6136458;23;20030;-69
2023/12/29 07:32:57;;;;;;;8.30;2.17;;;;;;;11.17;69.05;100719.94;6137204;23;20022;-68
2023/12/29 07:35:26;;;;;;;6.53;2.40;;;;;;;11.18;69.14;100697.38;6136751;23;20093;-67
2023/12/29 07:37:54;;;;;;;8.13;1.73;;;;;;;11.15;68.81;100688.94;6136950;23;20041;-68
2023/12/29 07:40:22;;;;;;;7.97;1.55;;;;;;;11.13;69.15;100673.03;6137107;23;20030;-67
2023/12/29 07:42:50;;;;;;;5.57;1.63;;;;;;;11.11;69.23;100647.41;6136085;23;20045;-68
2023/12/29 07:45:18;;;;;;;6.70;1.60;;;;;;;11.09;69.61;100653.84;6136148;23;20069;-60
2023/12/29 07:47:46;;;;;;;10.93;1.65;;;;;;;11.09;69.49;100682.59;6136314;23;20097;-69
2023/12/29 07:50:14;;;;;;;5.63;1.88;;;;;;;11.06;69.71;100675.81;6135774;23;20279;-66
2023/12/29 07:52:45;;;;;;;4.63;1.40;;;;;;;11.02;69.45;100652.28;6135551;23;20029;-70
2023/12/29 07:55:13;;;;;;;6.13;1.88;;;;;;;11.02;69.76;100663.06;6138060;23;20022;-70
2023/12/29 07:57:41;;;;;;;8.55;2.05;;;;;;;11.00;70.09;100668.66;6137071;23;20141;-70
2023/12/29 08:00:10;;;;;;;7.00;1.33;;;;;;;11.00;70.08;100674.03;6137633;23;20033;-69
2023/12/29 08:02:38;;;;;;;3.15;1.33;;;;;;;10.98;70.05;100689.59;6137627;23;20089;-70
2023/12/29 08:05:08;;;;;;;7.60;1.45;;;;;;;10.97;70.23;100697.88;6138338;23;20068;-68
2023/12/29 08:07:36;;;;;;;9.73;2.10;;;;;;;10.96;70.10;100705.13;6137540;23;20026;-68
2023/12/29 08:10:07;;;;;;;5.85;1.08;;;;;;;10.95;70.27;100708.03;6138070;23;20033;-69
2023/12/29 08:12:35;;;;;;;5.78;1.40;;;;;;;10.95;70.20;100711.53;6137131;23;20345;-68
2023/12/29 08:15:05;;;;;;;3.92;1.63;;;;;;;10.95;70.31;100706.16;6138386;23;20105;-68
2023/12/29 08:17:33;;;;;;;5.40;1.50;;;;;;;10.94;70.24;100706.41;6138074;23;20086;-69
2023/12/29 08:20:01;;;;;;;4.13;1.20;;;;;;;10.94;70.49;100711.78;6139464;23;20026;-69
2023/12/29 08:22:32;;;;;;;4.72;1.35;;;;;;;10.94;70.40;100722.53;6137440;23;20025;-69
2023/12/29 08:25:00;;;;;;;4.38;1.25;;;;;;;10.93;70.11;100718.19;6139584;23;20116;-69
2023/12/29 08:27:29;;;;;;;3.75;1.13;;;;;;;10.92;70.25;100721.94;6139400;23;20105;-68
2023/12/29 08:29:57;;;;;;;5.90;1.60;;;;;;;10.90;70.35;100706.03;6139880;23;20077;-68
2023/12/29 08:32:24;;;;;;;7.20;2.47;;;;;;;10.90;70.41;100713.28;6139158;23;20084;-68
2023/12/29 08:34:52;;;;;;;4.80;1.88;;;;;;;10.91;70.54;100707.66;6139093;23;20073;-69
2023/12/29 08:37:20;;;;;;;4.60;1.60;;;;;;;10.92;70.39;100717.38;6138788;23;20025;-68
2023/12/29 08:39:48;;;;;;;4.43;1.38;;;;;;;10.89;70.46;100723.22;6139420;23;20026;-68
2023/12/29 08:42:17;;;;;;;4.00;1.10;;;;;;;10.90;70.64;100724.03;6138615;23;20128;-69
2023/12/29 08:44:46;;;;;;;4.95;1.33;;;;;;;10.89;70.37;100723.22;6139205;23;20033;-69
2023/12/29 08:47:14;;;;;;;3.15;0.90;;;;;;;10.89;70.79;100727.78;6139049;23;20057;-68
2023/12/29 08:49:41;;;;;;;4.97;1.35;;;;;;;10.90;70.47;100729.41;6139199;23;20026;-69
2023/12/29 08:52:09;;;;;;;3.42;1.20;;;;;;;10.89;70.59;100727.78;6137098;23;20022;-69
2023/12/29 08:54:37;;;;;;;7.32;1.83;;;;;;;10.87;70.75;100732.56;6138081;23;20045;-68
2023/12/29 08:57:06;;;;;;;5.70;1.40;;;;;;;10.92;70.62;100732.69;6136965;23;20025;-68
2023/12/29 08:59:34;;;;;;;2.70;1.20;;;;;;;10.90;70.75;100737.47;6137832;23;20034;-68
2023/12/29 09:02:04;;;;;;;5.03;1.35;;;;;;;10.90;70.76;100743.66;6137749;23;20026;-68
2023/12/29 09:04:31;;;;;;;5.90;1.15;;;;;;;10.90;70.89;100743.66;6138888;23;20102;-68
2023/12/29 09:06:59;;;;;;;6.18;1.10;;;;;;;10.92;70.92;100741.56;6138308;23;20025;-67
2023/12/29 09:09:27;;;;;;;1.90;1.25;;;;;;;10.90;70.90;100718.66;6138605;23;20036;-68
2023/12/29 09:11:55;;;;;;;4.50;0.98;;;;;;;10.90;70.97;100737.47;6138987;23;20025;-68
2023/12/29 09:14:23;;;;;;;5.65;1.15;;;;;;;10.89;71.10;100728.59;6139332;23;20077;-68
2023/12/29 09:16:50;;;;;;;3.05;0.93;;;;;;;10.90;70.99;100734.78;6139110;23;20030;-68
2023/12/29 09:19:20;;;;;;;4.50;1.42;;;;;;;10.89;71.11;100742.03;6138644;23;20072;-68
2023/12/29 09:22:03;;;;;;;4.75;1.70;;;;;;;10.90;71.06;100740.16;6136961;23;20026;-68
2023/12/29 09:24:31;;;;;;;5.55;1.40;;;;;;;10.89;71.24;100742.03;6137457;23;20026;-68
2023/12/29 09:26:58;;;;;;;2.75;1.10;;;;;;;10.90;71.02;100742.84;6137130;23;20058;-68
2023/12/29 09:29:26;;;;;;;2.75;0.70;;;;;;;10.89;71.26;100735.84;6137698;23;20448;-68
2023/12/29 09:31:54;;;;;;;3.08;0.90;;;;;;;10.90;71.42;100750.91;6139004;23;20081;-68
2023/12/29 09:34:23;;;;;;;1.92;0.70;;;;;;;10.89;71.31;100743.91;6138626;23;20022;-68
2023/12/29 09:36:51;;;;;;;4.82;1.27;;;;;;;10.88;71.66;100745.75;6137904;23;20085;-68
2023/12/29 09:39:19;;;;;;;2.97;1.00;;;;;;;10.88;71.69;100750.31;6139261;23;20037;-68
2023/12/29 09:41:48;;;;;;;2.92;1.02;;;;;;;10.86;71.77;100739.78;6138914;23;20026;-68
2023/12/29 09:44:16;;;;;;;2.78;0.93;;;;;;;10.87;71.64;100759.44;6138199;23;20050;-69
2023/12/29 09:46:45;;;;;;;3.00;0.82;;;;;;;10.87;71.96;100752.19;6138361;23;20085;-69
2023/12/29 09:49:14;;;;;;;3.35;0.88;;;;;;;10.87;71.55;100764.81;6138758;23;20029;-68
2023/12/29 09:51:44;;;;;;;2.03;1.13;;;;;;;10.86;71.92;100766.69;6136713;23;20104;-69
2023/12/29 09:54:13;;;;;;;3.28;0.80;;;;;;;10.87;71.73;100760.25;6137298;23;20022;-68
2023/12/29 09:56:41;;;;;;;2.92;0.80;;;;;;;10.85;71.76;100748.09;6136817;23;20117;-68
2023/12/29 09:59:11;;;;;;;3.45;0.88;;;;;;;10.87;71.70;100767.50;6137889;23;20029;-68
2023/12/29 10:01:40;;;;;;;5.75;0.77;;;;;;;10.86;71.70;100755.09;6138691;23;20022;-68
2023/12/29 10:04:08;;;;;;;2.88;0.98;;;;;;;10.87;71.54;100741.44;6138738;23;20022;-69
2023/12/29 10:06:39;;;;;;;2.53;0.68;;;;;;;10.88;71.42;100742.25;6137700;23;20025;-69
2023/12/29 10:09:13;;;;;;;3.70;1.00;;;;;;;10.86;71.46;100742.47;6138965;23;20045;-69
2023/12/29 10:11:43;;;;;;;2.28;0.73;;;;;;;10.87;71.47;100724.47;6138710;23;20022;-69
2023/12/29 10:14:22;;;;;;;2.85;1.00;;;;;;;10.87;71.46;100736.06;6138646;23;20075;-68
2023/12/29 10:16:55;;;;;;;2.50;0.80;;;;;;;10.86;71.15;100739.78;6138019;23;20027;-69
2023/12/29 10:19:31;;;;;;;1.08;0.60;;;;;;;10.83;71.37;100747.50;6139012;23;20026;-69
2023/12/29 10:22:06;;;;;;;2.20;0.80;;;;;;;10.86;71.21;100753.25;6136377;23;20080;-68
2023/12/29 10:24:37;;;;;;;5.82;0.93;;;;;;;10.87;71.28;100768.31;6137075;23;20272;-68
2023/12/29 10:27:06;;;;;;;2.78;0.90;;;;;;;10.86;71.15;100772.06;6136643;23;20061;-68
2023/12/29 10:29:34;;;;;;;1.90;0.68;;;;;;;10.85;71.18;100765.03;6137502;23;20025;-68
2023/12/29 10:32:02;;;;;;;3.45;0.98;;;;;;;10.87;71.07;100764.81;6138587;23;20030;-68
2023/12/29 10:34:31;;;;;;;3.83;0.98;;;;;;;10.85;71.42;100762.34;6138469;23;20022;-69
2023/12/29 10:37:01;;;;;;;8.18;1.42;;;;;;;10.86;70.95;100761.31;6137448;23;20282;-68
2023/12/29 10:39:29;;;;;;;2.08;0.80;;;;;;;10.86;71.19;100772.06;6138843;23;20113;-68
2023/12/29 10:42:09;;;;;;;5.18;1.55;;;;;;;10.86;71.34;100774.75;6139433;23;20029;-68
2023/12/29 10:44:38;;;;;;;6.40;0.98;;;;;;;10.87;71.12;100773.69;6139987;23;20326;-68
2023/12/29 10:47:10;;;;;;;3.60;0.82;;;;;;;10.87;71.40;100773.69;6140072;23;20030;-68
2023/12/29 10:49:38;;;;;;;5.85;1.50;;;;;;;10.88;71.14;100802.22;6140509;23;20022;-68
2023/12/29 10:52:13;;;;;;;6.32;1.40;;;;;;;10.90;71.30;100794.75;6138331;23;20030;-68
2023/12/29 10:54:42;;;;;;;4.55;1.00;;;;;;;10.89;71.31;100790.44;6138739;23;20100;-68
2023/12/29 10:57:13;;;;;;;4.50;1.10;;;;;;;10.93;71.35;100790.78;6138645;23;20053;-68
2023/12/29 10:59:41;;;;;;;4.78;1.05;;;;;;;10.91;71.37;100782.97;6139822;23;20026;-68
2023/12/29 11:02:14;;;;;;;5.47;1.33;;;;;;;10.97;71.31;100786.63;6139936;23;20104;-68
2023/12/29 11:04:42;;;;;;;5.30;1.63;;;;;;;10.94;71.39;100776.31;6140282;23;20080;-68
2023/12/29 11:07:13;;;;;;;6.35;1.40;;;;;;;10.92;71.27;100781.91;6139715;23;20049;-68
2023/12/29 11:09:42;;;;;;;4.25;1.40;;;;;;;10.92;71.39;100778.41;6140538;23;20026;-68
2023/12/29 11:12:13;;;;;;;6.03;1.38;;;;;;;10.93;71.32;100782.72;6140125;23;20057;-68
2023/12/29 11:14:45;;;;;;;7.30;1.17;;;;;;;10.92;71.36;100776.53;6140303;23;20022;-68
2023/12/29 11:17:15;;;;;;;3.67;1.20;;;;;;;10.93;70.98;100785.41;6140612;23;20026;-68
2023/12/29 11:19:46;;;;;;;3.58;1.25;;;;;;;10.90;71.31;100783.19;6139845;23;20036;-68
2023/12/29 11:22:17;;;;;;;2.95;1.20;;;;;;;10.94;71.63;100795.13;6138051;23;20028;-68
2023/12/29 11:24:47;;;;;;;6.00;1.50;;;;;;;10.94;71.84;100804.03;6138721;23;20089;-68
2023/12/29 11:27:17;;;;;;;6.57;1.45;;;;;;;10.94;71.92;100797.81;6137884;23;20033;-68
2023/12/29 11:29:46;;;;;;;2.95;0.90;;;;;;;10.94;71.81;100789.75;6139218;23;20022;-68
2023/12/29 11:32:21;;;;;;;3.67;1.33;;;;;;;10.93;71.82;100788.94;6138912;23;20030;-68